Check out our new PWSWeather beta!
PWSweather.com
Personal Weather Stations
Station Observations
KVAGLENALL
West Henrico, Glen Allen, VA 23060-6503

West HenricoGlen Allen, VA 23060-6503

Lat: 37.6554, Lon: -77.5693

Elevation: 273

Station Type: Davis Vantage Pro II

www.glenallenweather.com

High Low Average
Temperature 48.3°F9.1°C 40.4°F4.7°C 44.3°F6.8°C
Dew Point 47.5°F8.6°C 39.1°F3.9°C 43.4°F6.3°C
Winds 7.0 mph 11.3 kmh Calm Calm 2.0 mph S3.2 kmh S
Wind Gusts 8.1 mph13.0 kmh -- 3.0 mph4.8 kmh
Humidity 98% 95% 97%
Pressure 29.98 in1015.2 mb 29.49 in998.6 mb -
Precipitation 0.00 in0.0 mm - -
Hour Temp Dew Point Humidity Winds Wind Gusts Pressure Precip Precip Rate Daily Precip Total
12:30 AM 40.4°F4.7°C 39.1°F3.9°C 95% Calm Calm -- 29.98 in1015.2 mb 0.01 in0.3 mm 0.02 in0.5 mm 0.01 in0.3 mm
01:30 AM 40.8°F4.9°C 39.8°F4.3°C 96% 3.0 mph SE4.8 kmh SE 4.0 mph6.4 kmh 29.94 in1013.9 mb 0.04 in1.0 mm 0.00 in0.0 mm 0.04 in1.0 mm
02:30 AM 40.9°F4.9°C 39.9°F4.4°C 96% 2.0 mph ESE3.2 kmh ESE 3.0 mph4.8 kmh 29.92 in1013.2 mb 0.01 in0.3 mm 0.00 in0.0 mm 0.04 in1.0 mm
03:30 AM 41.0°F5.0°C 40.0°F4.4°C 96% 4.0 mph E6.4 kmh E 5.1 mph8.2 kmh 29.88 in1011.9 mb 0.01 in0.3 mm 0.00 in0.0 mm 0.04 in1.0 mm
04:30 AM 41.3°F5.2°C 40.5°F4.7°C 97% 6.0 mph ESE9.7 kmh ESE 6.1 mph9.8 kmh 29.85 in1010.8 mb 0.02 in0.5 mm 0.00 in0.0 mm 0.05 in1.3 mm
05:30 AM 41.7°F5.4°C 40.9°F4.9°C 97% 7.0 mph S11.3 kmh S 8.1 mph13.0 kmh 29.85 in1010.8 mb 0.00 in0.0 mm 0.00 in0.0 mm 0.05 in1.3 mm
06:30 AM 42.1°F5.6°C 41.3°F5.2°C 97% 4.0 mph ESE6.4 kmh ESE 6.1 mph9.8 kmh 29.82 in1009.8 mb 0.02 in0.5 mm 0.00 in0.0 mm 0.07 in1.8 mm
07:30 AM 42.5°F5.8°C 41.7°F5.4°C 97% 3.0 mph ESE4.8 kmh ESE 4.0 mph6.4 kmh 29.79 in1008.8 mb 0.04 in1.0 mm 0.00 in0.0 mm 0.09 in2.3 mm
08:30 AM 42.8°F6.0°C 42.0°F5.6°C 97% 1.0 mph ESE1.6 kmh ESE 3.0 mph4.8 kmh 29.78 in1008.5 mb 0.11 in2.8 mm 0.00 in0.0 mm 0.16 in4.1 mm
09:30 AM 43.7°F6.5°C 42.9°F6.1°C 97% Calm Calm 4.0 mph6.4 kmh 29.73 in1006.8 mb 0.11 in2.8 mm 0.00 in0.0 mm 0.16 in4.1 mm
10:30 AM 45.4°F7.4°C 44.9°F7.2°C 98% 3.0 mph ESE4.8 kmh ESE 6.1 mph9.8 kmh 29.69 in1005.4 mb 0.06 in1.5 mm 0.00 in0.0 mm 0.16 in4.1 mm
11:30 AM 46.5°F8.1°C 45.7°F7.6°C 97% 4.0 mph E6.4 kmh E 8.1 mph13.0 kmh 29.61 in1002.7 mb 0.19 in4.8 mm 0.00 in0.0 mm 0.29 in7.4 mm
12:30 PM 47.2°F8.4°C 46.7°F8.2°C 98% Calm Calm -- 29.57 in1001.4 mb 0.16 in4.1 mm 0.00 in0.0 mm 0.29 in7.4 mm
01:30 PM 48.0°F8.9°C 47.5°F8.6°C 98% Calm Calm 1.0 mph1.6 kmh 29.51 in999.3 mb 0.06 in1.5 mm 0.00 in0.0 mm 0.29 in7.4 mm
02:30 PM 48.3°F9.1°C 47.5°F8.6°C 97% 2.0 mph NNW3.2 kmh NNW 4.0 mph6.4 kmh 29.49 in998.6 mb 0.02 in0.5 mm 0.00 in0.0 mm 0.29 in7.4 mm
03:30 PM 47.8°F8.8°C 46.8°F8.2°C 96% Calm Calm -- 29.49 in998.6 mb 0.01 in0.3 mm 0.00 in0.0 mm 0.29 in7.4 mm
04:30 PM 47.2°F8.4°C 46.2°F7.9°C 96% 1.0 mph NW1.6 kmh NW 3.0 mph4.8 kmh 29.50 in999.0 mb 0.00 in0.0 mm 0.00 in0.0 mm 0.29 in7.4 mm
05:30 PM 46.5°F8.1°C 45.5°F7.5°C 96% Calm Calm 3.0 mph4.8 kmh 29.49 in998.6 mb 0.00 in0.0 mm 0.00 in0.0 mm 0.29 in7.4 mm
06:30 PM 45.7°F7.6°C 44.9°F7.2°C 97% Calm Calm 3.0 mph4.8 kmh 29.52 in999.7 mb 0.00 in0.0 mm 0.00 in0.0 mm 0.29 in7.4 mm
07:30 PM 45.1°F7.3°C 44.1°F6.7°C 96% 2.0 mph WNW3.2 kmh WNW 2.0 mph3.2 kmh 29.52 in999.7 mb 0.00 in0.0 mm 0.00 in0.0 mm 0.29 in7.4 mm
08:30 PM 44.6°F7.0°C 43.6°F6.4°C 96% Calm Calm -- 29.51 in999.3 mb 0.00 in0.0 mm 0.00 in0.0 mm 0.29 in7.4 mm
09:30 PM 44.7°F7.1°C 43.9°F6.6°C 97% Calm Calm 3.0 mph4.8 kmh 29.52 in999.7 mb 0.01 in0.3 mm 0.00 in0.0 mm 0.30 in7.6 mm
10:30 PM 44.2°F6.8°C 43.4°F6.3°C 97% 3.0 mph NE4.8 kmh NE 3.0 mph4.8 kmh 29.52 in999.7 mb 0.01 in0.3 mm 0.00 in0.0 mm 0.30 in7.6 mm
11:30 PM 44.4°F6.9°C 43.4°F6.3°C 96% Calm Calm -- 29.54 in1000.3 mb 0.00 in0.0 mm 0.00 in0.0 mm 0.30 in7.6 mm